sensor_id;sensor_type;location;lat;lon;timestamp;temperature;humidity
48208;DHT22;33997;53.278;9.708;2023-11-19T00:01:55;5.20;99.90
48208;DHT22;33997;53.278;9.708;2023-11-19T00:04:21;5.20;99.90
48208;DHT22;33997;53.278;9.708;2023-11-19T00:06:47;5.30;99.90
48208;DHT22;33997;53.278;9.708;2023-11-19T00:09:13;5.30;99.90
48208;DHT22;33997;53.278;9.708;2023-11-19T00:11:38;5.30;99.90
48208;DHT22;33997;53.278;9.708;2023-11-19T00:14:04;5.30;99.90
48208;DHT22;33997;53.278;9.708;2023-11-19T00:16:34;5.30;99.90
48208;DHT22;33997;53.278;9.708;2023-11-19T00:19:00;5.30;99.90
48208;DHT22;33997;53.278;9.708;2023-11-19T00:21:25;5.40;99.90
48208;DHT22;33997;53.278;9.708;2023-11-19T00:23:53;5.30;99.90
48208;DHT22;33997;53.278;9.708;2023-11-19T00:26:19;5.30;99.90
48208;DHT22;33997;53.278;9.708;2023-11-19T00:28:45;5.30;99.90
48208;DHT22;33997;53.278;9.708;2023-11-19T00:31:12;5.40;99.90
48208;DHT22;33997;53.278;9.708;2023-11-19T00:33:38;5.40;99.90
48208;DHT22;33997;53.278;9.708;2023-11-19T00:36:05;5.40;99.90
48208;DHT22;33997;53.278;9.708;2023-11-19T00:38:30;5.40;99.90
48208;DHT22;33997;53.278;9.708;2023-11-19T00:40:56;5.40;99.90
48208;DHT22;33997;53.278;9.708;2023-11-19T00:43:21;5.50;99.90
48208;DHT22;33997;53.278;9.708;2023-11-19T00:45:47;5.50;99.90
48208;DHT22;33997;53.278;9.708;2023-11-19T00:48:15;5.40;99.90
48208;DHT22;33997;53.278;9.708;2023-11-19T00:50:41;5.50;99.90
48208;DHT22;33997;53.278;9.708;2023-11-19T00:53:09;5.40;99.90
48208;DHT22;33997;53.278;9.708;2023-11-19T00:55:35;5.60;99.90
48208;DHT22;33997;53.278;9.708;2023-11-19T00:58:00;5.50;99.90
48208;DHT22;33997;53.278;9.708;2023-11-19T01:00:26;5.50;99.90
48208;DHT22;33997;53.278;9.708;2023-11-19T01:02:52;5.60;99.90
48208;DHT22;33997;53.278;9.708;2023-11-19T01:05:19;5.60;99.90
48208;DHT22;33997;53.278;9.708;2023-11-19T01:07:47;5.60;99.90
48208;DHT22;33997;53.278;9.708;2023-11-19T01:10:13;5.60;99.90
48208;DHT22;33997;53.278;9.708;2023-11-19T01:12:39;5.60;99.90
48208;DHT22;33997;53.278;9.708;2023-11-19T01:15:06;5.60;99.90
48208;DHT22;33997;53.278;9.708;2023-11-19T01:17:31;5.60;99.90
48208;DHT22;33997;53.278;9.708;2023-11-19T01:19:57;5.60;99.90
48208;DHT22;33997;53.278;9.708;2023-11-19T01:22:22;5.60;99.90
48208;DHT22;33997;53.278;9.708;2023-11-19T01:24:48;5.70;99.90
48208;DHT22;33997;53.278;9.708;2023-11-19T01:27:14;5.70;99.90
48208;DHT22;33997;53.278;9.708;2023-11-19T01:29:39;5.70;99.90
48208;DHT22;33997;53.278;9.708;2023-11-19T01:32:05;5.80;99.90
48208;DHT22;33997;53.278;9.708;2023-11-19T01:34:30;5.80;99.90
48208;DHT22;33997;53.278;9.708;2023-11-19T01:36:56;5.80;99.90
48208;DHT22;33997;53.278;9.708;2023-11-19T01:39:21;5.80;99.90
48208;DHT22;33997;53.278;9.708;2023-11-19T01:41:47;5.80;99.90
48208;DHT22;33997;53.278;9.708;2023-11-19T01:44:13;5.80;99.90
48208;DHT22;33997;53.278;9.708;2023-11-19T01:46:40;5.90;99.90
48208;DHT22;33997;53.278;9.708;2023-11-19T01:49:07;5.90;99.90
48208;DHT22;33997;53.278;9.708;2023-11-19T01:51:34;6.00;99.90
48208;DHT22;33997;53.278;9.708;2023-11-19T01:54:00;6.00;99.90
48208;DHT22;33997;53.278;9.708;2023-11-19T01:56:26;6.00;99.90
48208;DHT22;33997;53.278;9.708;2023-11-19T01:58:53;6.00;99.90
48208;DHT22;33997;53.278;9.708;2023-11-19T02:01:20;6.00;99.90
48208;DHT22;33997;53.278;9.708;2023-11-19T02:03:45;6.10;99.90
48208;DHT22;33997;53.278;9.708;2023-11-19T02:06:12;6.10;99.90
48208;DHT22;33997;53.278;9.708;2023-11-19T02:08:38;6.10;99.90
48208;DHT22;33997;53.278;9.708;2023-11-19T02:11:04;6.10;99.90
48208;DHT22;33997;53.278;9.708;2023-11-19T02:13:32;6.10;99.90
48208;DHT22;33997;53.278;9.708;2023-11-19T02:15:57;6.20;99.90
48208;DHT22;33997;53.278;9.708;2023-11-19T02:18:26;6.20;99.90
48208;DHT22;33997;53.278;9.708;2023-11-19T02:20:56;6.20;99.90
48208;DHT22;33997;53.278;9.708;2023-11-19T02:23:22;6.30;99.90
48208;DHT22;33997;53.278;9.708;2023-11-19T02:25:55;6.30;99.90
48208;DHT22;33997;53.278;9.708;2023-11-19T02:28:23;6.40;99.90
48208;DHT22;33997;53.278;9.708;2023-11-19T02:30:48;6.50;99.90
48208;DHT22;33997;53.278;9.708;2023-11-19T02:33:14;6.50;99.90
48208;DHT22;33997;53.278;9.708;2023-11-19T02:35:40;6.50;99.90
48208;DHT22;33997;53.278;9.708;2023-11-19T02:38:06;6.60;99.90
48208;DHT22;33997;53.278;9.708;2023-11-19T02:40:32;6.60;99.90
48208;DHT22;33997;53.278;9.708;2023-11-19T02:42:58;6.70;99.90
48208;DHT22;33997;53.278;9.708;2023-11-19T02:45:24;6.70;99.90
48208;DHT22;33997;53.278;9.708;2023-11-19T02:47:50;6.80;99.90
48208;DHT22;33997;53.278;9.708;2023-11-19T02:50:17;6.80;99.90
48208;DHT22;33997;53.278;9.708;2023-11-19T02:52:43;6.80;99.90
48208;DHT22;33997;53.278;9.708;2023-11-19T02:55:11;6.90;99.90
48208;DHT22;33997;53.278;9.708;2023-11-19T02:57:41;6.90;99.90
48208;DHT22;33997;53.278;9.708;2023-11-19T03:00:17;6.90;99.90
48208;DHT22;33997;53.278;9.708;2023-11-19T03:02:44;6.90;99.90
48208;DHT22;33997;53.278;9.708;2023-11-19T03:05:12;7.00;99.90
48208;DHT22;33997;53.278;9.708;2023-11-19T03:07:43;7.10;99.90
48208;DHT22;33997;53.278;9.708;2023-11-19T03:10:12;7.00;99.90
48208;DHT22;33997;53.278;9.708;2023-11-19T03:12:42;7.10;99.90
48208;DHT22;33997;53.278;9.708;2023-11-19T03:15:08;7.20;99.90
48208;DHT22;33997;53.278;9.708;2023-11-19T03:17:36;7.20;99.90
48208;DHT22;33997;53.278;9.708;2023-11-19T03:20:04;7.30;99.90
48208;DHT22;33997;53.278;9.708;2023-11-19T03:22:32;7.30;99.90
48208;DHT22;33997;53.278;9.708;2023-11-19T03:24:59;7.50;99.90
48208;DHT22;33997;53.278;9.708;2023-11-19T03:27:24;7.50;99.90
48208;DHT22;33997;53.278;9.708;2023-11-19T03:29:50;7.50;99.90
48208;DHT22;33997;53.278;9.708;2023-11-19T03:32:15;7.60;99.90
48208;DHT22;33997;53.278;9.708;2023-11-19T03:34:41;7.60;99.90
48208;DHT22;33997;53.278;9.708;2023-11-19T03:37:06;7.70;99.90
48208;DHT22;33997;53.278;9.708;2023-11-19T03:39:32;7.70;99.90
48208;DHT22;33997;53.278;9.708;2023-11-19T03:41:58;7.80;99.90
48208;DHT22;33997;53.278;9.708;2023-11-19T03:44:23;7.80;99.90
48208;DHT22;33997;53.278;9.708;2023-11-19T03:46:51;7.80;99.90
48208;DHT22;33997;53.278;9.708;2023-11-19T03:49:17;8.00;99.90
48208;DHT22;33997;53.278;9.708;2023-11-19T03:51:42;7.90;99.90
48208;DHT22;33997;53.278;9.708;2023-11-19T03:54:08;8.00;99.90
48208;DHT22;33997;53.278;9.708;2023-11-19T03:56:33;8.00;99.90
48208;DHT22;33997;53.278;9.708;2023-11-19T03:58:59;8.10;99.90
48208;DHT22;33997;53.278;9.708;2023-11-19T04:01:24;8.10;99.90
48208;DHT22;33997;53.278;9.708;2023-11-19T04:03:50;8.10;99.90
48208;DHT22;33997;53.278;9.708;2023-11-19T04:06:15;8.20;99.90
48208;DHT22;33997;53.278;9.708;2023-11-19T04:08:41;8.30;99.90
48208;DHT22;33997;53.278;9.708;2023-11-19T04:11:06;8.30;99.90
48208;DHT22;33997;53.278;9.708;2023-11-19T04:13:34;8.40;99.90
48208;DHT22;33997;53.278;9.708;2023-11-19T04:16:00;8.40;99.90
48208;DHT22;33997;53.278;9.708;2023-11-19T04:18:25;8.60;99.90
48208;DHT22;33997;53.278;9.708;2023-11-19T04:20:51;8.60;99.90
48208;DHT22;33997;53.278;9.708;2023-11-19T04:23:16;8.70;99.90
48208;DHT22;33997;53.278;9.708;2023-11-19T04:25:42;8.80;99.90
48208;DHT22;33997;53.278;9.708;2023-11-19T04:28:07;8.80;99.90
48208;DHT22;33997;53.278;9.708;2023-11-19T04:30:33;8.90;99.90
48208;DHT22;33997;53.278;9.708;2023-11-19T04:32:59;9.00;99.90
48208;DHT22;33997;53.278;9.708;2023-11-19T04:35:24;9.10;99.90
48208;DHT22;33997;53.278;9.708;2023-11-19T04:37:51;9.10;99.90
48208;DHT22;33997;53.278;9.708;2023-11-19T04:40:17;9.20;99.90
48208;DHT22;33997;53.278;9.708;2023-11-19T04:42:43;9.20;99.90
48208;DHT22;33997;53.278;9.708;2023-11-19T04:45:09;9.30;99.90
48208;DHT22;33997;53.278;9.708;2023-11-19T04:47:38;9.40;99.90
48208;DHT22;33997;53.278;9.708;2023-11-19T04:50:04;9.40;99.90
48208;DHT22;33997;53.278;9.708;2023-11-19T04:52:30;9.50;99.90
48208;DHT22;33997;53.278;9.708;2023-11-19T04:54:55;9.60;99.90
48208;DHT22;33997;53.278;9.708;2023-11-19T04:57:21;9.60;99.90
48208;DHT22;33997;53.278;9.708;2023-11-19T04:59:46;9.60;99.90
48208;DHT22;33997;53.278;9.708;2023-11-19T05:02:12;9.70;99.90
48208;DHT22;33997;53.278;9.708;2023-11-19T05:04:42;9.80;99.90
48208;DHT22;33997;53.278;9.708;2023-11-19T05:07:09;9.90;99.90
48208;DHT22;33997;53.278;9.708;2023-11-19T05:09:34;10.10;99.90
48208;DHT22;33997;53.278;9.708;2023-11-19T05:12:00;10.20;99.90
48208;DHT22;33997;53.278;9.708;2023-11-19T05:14:27;10.20;99.90
48208;DHT22;33997;53.278;9.708;2023-11-19T05:16:53;10.20;99.90
48208;DHT22;33997;53.278;9.708;2023-11-19T05:19:18;10.30;99.90
48208;DHT22;33997;53.278;9.708;2023-11-19T05:21:44;10.40;99.90
48208;DHT22;33997;53.278;9.708;2023-11-19T05:24:09;10.50;99.90
48208;DHT22;33997;53.278;9.708;2023-11-19T05:26:35;10.40;99.90
48208;DHT22;33997;53.278;9.708;2023-11-19T05:29:01;10.50;99.90
48208;DHT22;33997;53.278;9.708;2023-11-19T05:31:27;10.50;99.90
48208;DHT22;33997;53.278;9.708;2023-11-19T05:33:53;10.50;99.90
48208;DHT22;33997;53.278;9.708;2023-11-19T05:36:18;10.50;99.90
48208;DHT22;33997;53.278;9.708;2023-11-19T05:38:43;10.60;99.90
48208;DHT22;33997;53.278;9.708;2023-11-19T05:41:10;10.70;99.90
48208;DHT22;33997;53.278;9.708;2023-11-19T05:43:35;10.70;99.90
48208;DHT22;33997;53.278;9.708;2023-11-19T05:46:01;10.70;99.90
48208;DHT22;33997;53.278;9.708;2023-11-19T05:48:27;10.70;99.90
48208;DHT22;33997;53.278;9.708;2023-11-19T05:50:53;10.70;99.90
48208;DHT22;33997;53.278;9.708;2023-11-19T05:53:19;10.70;99.90
48208;DHT22;33997;53.278;9.708;2023-11-19T05:55:44;10.80;99.90
48208;DHT22;33997;53.278;9.708;2023-11-19T05:58:14;10.70;99.90
48208;DHT22;33997;53.278;9.708;2023-11-19T06:00:40;10.70;99.90
48208;DHT22;33997;53.278;9.708;2023-11-19T06:03:08;10.70;99.90
48208;DHT22;33997;53.278;9.708;2023-11-19T06:05:34;10.70;99.90
48208;DHT22;33997;53.278;9.708;2023-11-19T06:07:59;10.70;99.90
48208;DHT22;33997;53.278;9.708;2023-11-19T06:10:25;10.70;99.90
48208;DHT22;33997;53.278;9.708;2023-11-19T06:12:59;10.70;99.90
48208;DHT22;33997;53.278;9.708;2023-11-19T06:15:26;10.70;99.90
48208;DHT22;33997;53.278;9.708;2023-11-19T06:17:52;10.70;99.90
48208;DHT22;33997;53.278;9.708;2023-11-19T06:20:18;10.70;99.90
48208;DHT22;33997;53.278;9.708;2023-11-19T06:22:45;10.80;99.90
48208;DHT22;33997;53.278;9.708;2023-11-19T06:25:11;10.70;99.90
48208;DHT22;33997;53.278;9.708;2023-11-19T06:27:36;10.70;99.90
48208;DHT22;33997;53.278;9.708;2023-11-19T06:30:02;10.70;99.90
48208;DHT22;33997;53.278;9.708;2023-11-19T06:32:28;10.80;99.90
48208;DHT22;33997;53.278;9.708;2023-11-19T06:34:54;10.80;99.90
48208;DHT22;33997;53.278;9.708;2023-11-19T06:37:20;10.80;99.90
48208;DHT22;33997;53.278;9.708;2023-11-19T06:39:45;10.80;99.90
48208;DHT22;33997;53.278;9.708;2023-11-19T06:42:11;10.80;99.90
48208;DHT22;33997;53.278;9.708;2023-11-19T06:44:36;10.80;99.90
48208;DHT22;33997;53.278;9.708;2023-11-19T06:47:02;10.80;99.90
48208;DHT22;33997;53.278;9.708;2023-11-19T06:49:27;10.80;99.90
48208;DHT22;33997;53.278;9.708;2023-11-19T06:51:53;10.80;99.90
48208;DHT22;33997;53.278;9.708;2023-11-19T06:54:18;10.90;99.90
48208;DHT22;33997;53.278;9.708;2023-11-19T06:56:44;10.90;99.90
48208;DHT22;33997;53.278;9.708;2023-11-19T06:59:09;10.80;99.90
48208;DHT22;33997;53.278;9.708;2023-11-19T07:01:35;10.90;99.90
48208;DHT22;33997;53.278;9.708;2023-11-19T07:04:01;10.90;99.90
48208;DHT22;33997;53.278;9.708;2023-11-19T07:06:33;10.90;99.90
48208;DHT22;33997;53.278;9.708;2023-11-19T07:08:59;11.00;99.90
48208;DHT22;33997;53.278;9.708;2023-11-19T07:11:27;11.00;99.90
48208;DHT22;33997;53.278;9.708;2023-11-19T07:13:54;11.00;99.90
48208;DHT22;33997;53.278;9.708;2023-11-19T07:16:19;11.00;99.90
48208;DHT22;33997;53.278;9.708;2023-11-19T07:18:46;11.00;99.90
48208;DHT22;33997;53.278;9.708;2023-11-19T07:21:15;11.10;99.90
48208;DHT22;33997;53.278;9.708;2023-11-19T07:23:40;11.10;99.90
48208;DHT22;33997;53.278;9.708;2023-11-19T07:26:07;11.00;99.90
48208;DHT22;33997;53.278;9.708;2023-11-19T07:28:36;11.10;99.90
48208;DHT22;33997;53.278;9.708;2023-11-19T07:31:01;11.10;99.90
48208;DHT22;33997;53.278;9.708;2023-11-19T07:33:27;11.10;99.90
48208;DHT22;33997;53.278;9.708;2023-11-19T07:35:52;11.20;99.90
48208;DHT22;33997;53.278;9.708;2023-11-19T07:38:18;11.20;99.60
48208;DHT22;33997;53.278;9.708;2023-11-19T07:40:43;11.20;99.60
48208;DHT22;33997;53.278;9.708;2023-11-19T07:43:09;11.20;99.60
48208;DHT22;33997;53.278;9.708;2023-11-19T07:45:34;11.20;99.50
48208;DHT22;33997;53.278;9.708;2023-11-19T07:48:00;11.30;99.40
48208;DHT22;33997;53.278;9.708;2023-11-19T07:50:26;11.30;99.30
48208;DHT22;33997;53.278;9.708;2023-11-19T07:52:52;11.30;99.20
48208;DHT22;33997;53.278;9.708;2023-11-19T07:55:18;11.30;99.30
48208;DHT22;33997;53.278;9.708;2023-11-19T07:57:44;11.30;99.30
48208;DHT22;33997;53.278;9.708;2023-11-19T08:00:10;11.30;99.30
48208;DHT22;33997;53.278;9.708;2023-11-19T08:02:39;11.30;99.30
48208;DHT22;33997;53.278;9.708;2023-11-19T08:05:05;11.30;99.30
48208;DHT22;33997;53.278;9.708;2023-11-19T08:07:31;11.40;99.20
48208;DHT22;33997;53.278;9.708;2023-11-19T08:09:56;11.40;99.10
48208;DHT22;33997;53.278;9.708;2023-11-19T08:12:22;11.30;99.10
48208;DHT22;33997;53.278;9.708;2023-11-19T08:14:48;11.30;99.10
48208;DHT22;33997;53.278;9.708;2023-11-19T08:17:14;11.30;99.10
48208;DHT22;33997;53.278;9.708;2023-11-19T08:19:40;11.30;99.10
48208;DHT22;33997;53.278;9.708;2023-11-19T08:22:05;11.30;99.10
48208;DHT22;33997;53.278;9.708;2023-11-19T08:24:30;11.30;99.00
48208;DHT22;33997;53.278;9.708;2023-11-19T08:26:56;11.30;98.90
48208;DHT22;33997;53.278;9.708;2023-11-19T08:29:21;11.30;98.80
48208;DHT22;33997;53.278;9.708;2023-11-19T08:31:47;11.40;98.10
48208;DHT22;33997;53.278;9.708;2023-11-19T08:34:12;11.40;97.90
48208;DHT22;33997;53.278;9.708;2023-11-19T08:36:38;11.40;97.90
48208;DHT22;33997;53.278;9.708;2023-11-19T08:39:03;11.40;97.60
48208;DHT22;33997;53.278;9.708;2023-11-19T08:41:29;11.50;97.50
48208;DHT22;33997;53.278;9.708;2023-11-19T08:43:54;11.40;97.60
48208;DHT22;33997;53.278;9.708;2023-11-19T08:46:19;11.40;97.60
48208;DHT22;33997;53.278;9.708;2023-11-19T08:48:45;11.40;97.40
48208;DHT22;33997;53.278;9.708;2023-11-19T08:51:12;11.50;97.10
48208;DHT22;33997;53.278;9.708;2023-11-19T08:53:37;11.40;97.50
48208;DHT22;33997;53.278;9.708;2023-11-19T08:56:03;11.40;97.40
48208;DHT22;33997;53.278;9.708;2023-11-19T08:58:29;11.50;97.20
48208;DHT22;33997;53.278;9.708;2023-11-19T09:00:54;11.50;97.10
48208;DHT22;33997;53.278;9.708;2023-11-19T09:03:20;11.50;97.30
48208;DHT22;33997;53.278;9.708;2023-11-19T09:05:46;11.50;97.20
48208;DHT22;33997;53.278;9.708;2023-11-19T09:08:11;11.50;97.20
48208;DHT22;33997;53.278;9.708;2023-11-19T09:10:37;11.50;97.00
48208;DHT22;33997;53.278;9.708;2023-11-19T09:13:03;11.60;96.30
48208;DHT22;33997;53.278;9.708;2023-11-19T09:15:29;11.60;96.40
48208;DHT22;33997;53.278;9.708;2023-11-19T09:17:54;11.60;96.30
48208;DHT22;33997;53.278;9.708;2023-11-19T09:20:20;11.60;96.50
48208;DHT22;33997;53.278;9.708;2023-11-19T09:22:45;11.70;96.20
48208;DHT22;33997;53.278;9.708;2023-11-19T09:25:11;11.70;95.60
48208;DHT22;33997;53.278;9.708;2023-11-19T09:27:37;11.80;95.40
48208;DHT22;33997;53.278;9.708;2023-11-19T09:30:03;11.80;95.10
48208;DHT22;33997;53.278;9.708;2023-11-19T09:32:29;11.80;95.00
48208;DHT22;33997;53.278;9.708;2023-11-19T09:34:54;11.80;94.70
48208;DHT22;33997;53.278;9.708;2023-11-19T09:37:20;11.90;94.70
48208;DHT22;33997;53.278;9.708;2023-11-19T09:39:45;11.90;94.60
48208;DHT22;33997;53.278;9.708;2023-11-19T09:42:12;12.00;94.20
48208;DHT22;33997;53.278;9.708;2023-11-19T09:44:42;12.00;94.70
48208;DHT22;33997;53.278;9.708;2023-11-19T09:47:09;12.10;94.10
48208;DHT22;33997;53.278;9.708;2023-11-19T09:49:35;12.10;94.30
48208;DHT22;33997;53.278;9.708;2023-11-19T09:52:01;12.20;93.90
48208;DHT22;33997;53.278;9.708;2023-11-19T09:54:28;12.10;93.40
48208;DHT22;33997;53.278;9.708;2023-11-19T09:56:54;12.10;93.90
48208;DHT22;33997;53.278;9.708;2023-11-19T09:59:24;12.10;93.50
48208;DHT22;33997;53.278;9.708;2023-11-19T10:01:50;12.10;93.70
48208;DHT22;33997;53.278;9.708;2023-11-19T10:04:16;12.00;94.00
48208;DHT22;33997;53.278;9.708;2023-11-19T10:06:42;12.00;93.70
48208;DHT22;33997;53.278;9.708;2023-11-19T10:09:08;12.00;93.60
48208;DHT22;33997;53.278;9.708;2023-11-19T10:11:33;12.00;94.30
48208;DHT22;33997;53.278;9.708;2023-11-19T10:13:59;12.00;93.60
48208;DHT22;33997;53.278;9.708;2023-11-19T10:16:29;11.90;93.80
48208;DHT22;33997;53.278;9.708;2023-11-19T10:18:56;11.80;94.20
48208;DHT22;33997;53.278;9.708;2023-11-19T10:21:22;11.80;93.90
48208;DHT22;33997;53.278;9.708;2023-11-19T10:23:55;11.70;94.50
48208;DHT22;33997;53.278;9.708;2023-11-19T10:26:22;11.60;95.10
48208;DHT22;33997;53.278;9.708;2023-11-19T10:28:48;11.50;95.60
48208;DHT22;33997;53.278;9.708;2023-11-19T10:31:14;11.40;96.30
48208;DHT22;33997;53.278;9.708;2023-11-19T10:33:40;11.40;96.80
48208;DHT22;33997;53.278;9.708;2023-11-19T10:36:06;11.40;96.90
48208;DHT22;33997;53.278;9.708;2023-11-19T10:38:32;11.50;96.80
48208;DHT22;33997;53.278;9.708;2023-11-19T10:40:57;11.60;96.80
48208;DHT22;33997;53.278;9.708;2023-11-19T10:43:24;11.60;96.70
48208;DHT22;33997;53.278;9.708;2023-11-19T10:45:51;11.80;96.20
48208;DHT22;33997;53.278;9.708;2023-11-19T10:48:17;11.80;96.20
48208;DHT22;33997;53.278;9.708;2023-11-19T10:50:44;11.80;95.70
48208;DHT22;33997;53.278;9.708;2023-11-19T10:53:11;11.80;95.60
48208;DHT22;33997;53.278;9.708;2023-11-19T10:55:39;11.70;95.40
48208;DHT22;33997;53.278;9.708;2023-11-19T10:58:09;11.70;95.50
48208;DHT22;33997;53.278;9.708;2023-11-19T11:00:45;11.70;95.80
48208;DHT22;33997;53.278;9.708;2023-11-19T11:03:20;11.70;95.80
48208;DHT22;33997;53.278;9.708;2023-11-19T11:05:49;11.60;96.20
48208;DHT22;33997;53.278;9.708;2023-11-19T11:08:15;11.60;95.80
48208;DHT22;33997;53.278;9.708;2023-11-19T11:11:03;11.60;95.70
48208;DHT22;33997;53.278;9.708;2023-11-19T11:13:31;11.60;95.80
48208;DHT22;33997;53.278;9.708;2023-11-19T11:15:57;11.60;95.60
48208;DHT22;33997;53.278;9.708;2023-11-19T11:18:24;11.60;95.50
48208;DHT22;33997;53.278;9.708;2023-11-19T11:20:58;11.50;96.00
48208;DHT22;33997;53.278;9.708;2023-11-19T11:29:17;11.50;96.00
48208;DHT22;33997;53.278;9.708;2023-11-19T11:34:42;11.50;96.00
48208;DHT22;33997;53.278;9.708;2023-11-19T11:37:30;11.50;96.00
48208;DHT22;33997;53.278;9.708;2023-11-19T11:39:57;11.50;95.70
48208;DHT22;33997;53.278;9.708;2023-11-19T11:45:10;11.70;95.40
48208;DHT22;33997;53.278;9.708;2023-11-19T11:50:18;11.80;94.70
48208;DHT22;33997;53.278;9.708;2023-11-19T11:55:28;11.70;95.20
48208;DHT22;33997;53.278;9.708;2023-11-19T11:57:55;11.80;95.50
48208;DHT22;33997;53.278;9.708;2023-11-19T12:00:30;11.80;95.40
48208;DHT22;33997;53.278;9.708;2023-11-19T12:02:57;11.80;95.10
48208;DHT22;33997;53.278;9.708;2023-11-19T12:05:23;11.80;94.90
48208;DHT22;33997;53.278;9.708;2023-11-19T12:07:55;11.80;94.90
48208;DHT22;33997;53.278;9.708;2023-11-19T12:10:21;11.80;95.50
48208;DHT22;33997;53.278;9.708;2023-11-19T12:12:47;11.70;96.10
48208;DHT22;33997;53.278;9.708;2023-11-19T12:15:12;11.70;96.00
48208;DHT22;33997;53.278;9.708;2023-11-19T12:17:47;11.70;96.00
48208;DHT22;33997;53.278;9.708;2023-11-19T12:20:26;11.60;96.30
48208;DHT22;33997;53.278;9.708;2023-11-19T12:22:53;11.50;96.50
48208;DHT22;33997;53.278;9.708;2023-11-19T12:25:19;11.50;95.90
48208;DHT22;33997;53.278;9.708;2023-11-19T12:27:47;11.40;96.50
48208;DHT22;33997;53.278;9.708;2023-11-19T12:30:23;11.40;96.20
48208;DHT22;33997;53.278;9.708;2023-11-19T12:32:52;11.50;96.20
48208;DHT22;33997;53.278;9.708;2023-11-19T12:35:21;11.50;95.80
48208;DHT22;33997;53.278;9.708;2023-11-19T12:37:51;11.50;96.00
48208;DHT22;33997;53.278;9.708;2023-11-19T12:40:21;11.50;96.10
48208;DHT22;33997;53.278;9.708;2023-11-19T12:42:52;11.40;96.00
48208;DHT22;33997;53.278;9.708;2023-11-19T12:45:18;11.50;95.90
48208;DHT22;33997;53.278;9.708;2023-11-19T12:47:46;11.40;96.00
48208;DHT22;33997;53.278;9.708;2023-11-19T12:50:13;11.40;95.80
48208;DHT22;33997;53.278;9.708;2023-11-19T12:52:38;11.40;96.00
48208;DHT22;33997;53.278;9.708;2023-11-19T12:55:05;11.40;95.50
48208;DHT22;33997;53.278;9.708;2023-11-19T12:57:42;11.40;95.70
48208;DHT22;33997;53.278;9.708;2023-11-19T13:00:18;11.40;95.70
48208;DHT22;33997;53.278;9.708;2023-11-19T13:02:54;11.40;95.70
48208;DHT22;33997;53.278;9.708;2023-11-19T13:05:33;11.30;96.30
48208;DHT22;33997;53.278;9.708;2023-11-19T13:10:28;11.40;97.00
48208;DHT22;33997;53.278;9.708;2023-11-19T13:13:01;11.30;97.10
48208;DHT22;33997;53.278;9.708;2023-11-19T13:15:27;11.30;96.90
48208;DHT22;33997;53.278;9.708;2023-11-19T13:17:52;11.40;96.40
48208;DHT22;33997;53.278;9.708;2023-11-19T13:20:18;11.30;96.60
48208;DHT22;33997;53.278;9.708;2023-11-19T13:22:57;11.20;97.10
48208;DHT22;33997;53.278;9.708;2023-11-19T13:25:22;11.20;96.80
48208;DHT22;33997;53.278;9.708;2023-11-19T13:27:48;11.20;96.90
48208;DHT22;33997;53.278;9.708;2023-11-19T13:30:14;11.20;96.90
48208;DHT22;33997;53.278;9.708;2023-11-19T13:32:39;11.20;96.90
48208;DHT22;33997;53.278;9.708;2023-11-19T13:35:05;11.30;96.70
48208;DHT22;33997;53.278;9.708;2023-11-19T13:37:34;11.20;96.90
48208;DHT22;33997;53.278;9.708;2023-11-19T13:39:59;11.30;96.80
48208;DHT22;33997;53.278;9.708;2023-11-19T13:42:25;11.30;96.80
48208;DHT22;33997;53.278;9.708;2023-11-19T13:44:50;11.30;96.80
48208;DHT22;33997;53.278;9.708;2023-11-19T13:47:16;11.30;96.70
48208;DHT22;33997;53.278;9.708;2023-11-19T13:49:41;11.30;96.70
48208;DHT22;33997;53.278;9.708;2023-11-19T13:52:07;11.30;97.00
48208;DHT22;33997;53.278;9.708;2023-11-19T13:54:32;11.30;97.10
48208;DHT22;33997;53.278;9.708;2023-11-19T13:56:57;11.20;97.10
48208;DHT22;33997;53.278;9.708;2023-11-19T13:59:23;11.20;97.20
48208;DHT22;33997;53.278;9.708;2023-11-19T14:01:49;11.10;97.10
48208;DHT22;33997;53.278;9.708;2023-11-19T14:04:14;11.10;97.10
48208;DHT22;33997;53.278;9.708;2023-11-19T14:06:40;11.10;97.20
48208;DHT22;33997;53.278;9.708;2023-11-19T14:09:07;11.10;97.00
48208;DHT22;33997;53.278;9.708;2023-11-19T14:11:32;11.10;97.00
48208;DHT22;33997;53.278;9.708;2023-11-19T14:13:58;11.10;96.90
48208;DHT22;33997;53.278;9.708;2023-11-19T14:16:26;11.10;96.80
48208;DHT22;33997;53.278;9.708;2023-11-19T14:18:52;11.10;96.70
48208;DHT22;33997;53.278;9.708;2023-11-19T14:21:18;11.10;96.70
48208;DHT22;33997;53.278;9.708;2023-11-19T14:23:43;11.10;96.30
48208;DHT22;33997;53.278;9.708;2023-11-19T14:26:09;11.20;95.90
48208;DHT22;33997;53.278;9.708;2023-11-19T14:28:35;11.20;95.60
48208;DHT22;33997;53.278;9.708;2023-11-19T14:31:00;11.20;95.70
48208;DHT22;33997;53.278;9.708;2023-11-19T14:33:26;11.10;95.60
48208;DHT22;33997;53.278;9.708;2023-11-19T14:35:51;11.10;95.60
48208;DHT22;33997;53.278;9.708;2023-11-19T14:38:17;11.10;95.80
48208;DHT22;33997;53.278;9.708;2023-11-19T14:40:43;11.00;95.90
48208;DHT22;33997;53.278;9.708;2023-11-19T14:43:09;11.00;95.90
48208;DHT22;33997;53.278;9.708;2023-11-19T14:45:37;11.00;95.90
48208;DHT22;33997;53.278;9.708;2023-11-19T14:48:03;11.00;95.80
48208;DHT22;33997;53.278;9.708;2023-11-19T14:50:29;10.90;95.50
48208;DHT22;33997;53.278;9.708;2023-11-19T14:52:54;11.00;95.10
48208;DHT22;33997;53.278;9.708;2023-11-19T14:55:20;11.00;95.10
48208;DHT22;33997;53.278;9.708;2023-11-19T14:57:45;10.90;95.00
48208;DHT22;33997;53.278;9.708;2023-11-19T15:00:11;11.00;94.70
48208;DHT22;33997;53.278;9.708;2023-11-19T15:02:43;10.90;94.90
48208;DHT22;33997;53.278;9.708;2023-11-19T15:05:09;10.90;94.50
48208;DHT22;33997;53.278;9.708;2023-11-19T15:07:38;10.90;94.40
48208;DHT22;33997;53.278;9.708;2023-11-19T15:10:05;10.80;94.20
48208;DHT22;33997;53.278;9.708;2023-11-19T15:12:35;10.80;94.30
48208;DHT22;33997;53.278;9.708;2023-11-19T15:15:06;10.80;94.40
48208;DHT22;33997;53.278;9.708;2023-11-19T15:17:31;10.70;94.60
48208;DHT22;33997;53.278;9.708;2023-11-19T15:19:57;10.70;94.50
48208;DHT22;33997;53.278;9.708;2023-11-19T15:22:22;10.70;94.60
48208;DHT22;33997;53.278;9.708;2023-11-19T15:24:48;10.60;95.00
48208;DHT22;33997;53.278;9.708;2023-11-19T15:27:13;10.60;95.30
48208;DHT22;33997;53.278;9.708;2023-11-19T15:29:38;10.50;95.30
48208;DHT22;33997;53.278;9.708;2023-11-19T15:32:05;10.50;95.70
48208;DHT22;33997;53.278;9.708;2023-11-19T15:34:32;10.40;95.90
48208;DHT22;33997;53.278;9.708;2023-11-19T15:36:58;10.40;96.20
48208;DHT22;33997;53.278;9.708;2023-11-19T15:39:25;10.30;96.50
48208;DHT22;33997;53.278;9.708;2023-11-19T15:41:52;10.30;96.70
48208;DHT22;33997;53.278;9.708;2023-11-19T15:44:18;10.30;96.90
48208;DHT22;33997;53.278;9.708;2023-11-19T15:46:43;10.30;97.00
48208;DHT22;33997;53.278;9.708;2023-11-19T15:49:08;10.20;97.40
48208;DHT22;33997;53.278;9.708;2023-11-19T15:51:34;10.20;97.40